VTUL

Details ICAO VTUL (LOE)
Name Loei
Region Thailand
Timezone Asia/Bangkok (UTC+7.0)
Plans Departing 3
Arriving 3
Stats Elevation 860 ft / 262 m (AMSL)
Location 17.439132° 101.722065°
Runways 1
Magnetic Variation 0.813° W
Sunrise 2017-12-17 23:38:20 UTC / 2017-12-18 06:38:20 Local
Sunset 2017-12-18 10:43:33 UTC / 2017-12-18 17:43:33 Local
Advertisement - Login to hide

Runways

ID Width Length Bearing (true) Bearing (mag) Surface Threshold Offset Overrun Length
01 148 ft / 45 m 6,935 ft / 2,114 m 16.75° 17.56° Asphalt 0 ft / 0 m 205 ft / 62 m
19 148 ft / 45 m 6,935 ft / 2,114 m 196.75° 197.56° Asphalt 0 ft / 0 m 210 ft / 64 m

Map

Weather


0- 5 10 15 20 25 30 35+ Temperature / ° C

Clouds and Precipitation
Forecast for 2017-12-18 18:00 UTC. Updated an hour ago

Ground ~20,000 ft ~40,000 ft Winds

METAR

Not found

TAF

TAF VTUL 181100Z 1812/1912 06004KT 5000 BR SCT030 BECMG 1821/1823 VRB03KT 3000 BR SCT030 BECMG 1904/1906 04005KT 6000 NSW FEW030 SCT080

Frequencies

Tower 122.50 MHz TWR
Approach 126.20 MHz APP
Approach 122.55 MHz APP
Warning: Do not use this data for real-world aviation or navigation. No guarantee of current accuracy is given.